Time;durP1;ratioP1;P1;durP2;ratioP2;P2;SDS_P1;SDS_P2;PMS_P1;PMS_P2;Temp;Humidity;BMP_temperature;BMP_pressure;BME280_temperature;BME280_humidity;BME280_pressure;Samples;Min_cycle;Max_cycle;Signal;HPM_P1;HPM_P2
2023/09/06 00:03:36;;;;;;;1999.90;999.90;;;;;;;19.48;97.53;101804.47;10552856;28;20485;-71
2023/09/06 00:08:39;;;;;;;1999.90;999.90;;;;;;;19.71;94.62;101805.28;10552945;28;20051;-71
2023/09/06 00:13:42;;;;;;;1999.90;999.90;;;;;;;19.92;91.43;101800.09;10553284;28;20127;-71
2023/09/06 00:18:44;;;;;;;1999.90;999.90;;;;;;;19.69;91.30;101796.59;10551488;28;20126;-72
2023/09/06 00:23:47;;;;;;;1999.90;999.90;;;;;;;19.58;94.19;101796.59;10552503;28;20477;-71
2023/09/06 00:28:49;;;;;;;1999.90;999.90;;;;;;;19.65;92.60;101792.47;10551291;28;20495;-71
2023/09/06 00:33:52;;;;;;;1999.90;999.90;;;;;;;19.62;92.58;101785.63;10552028;28;20102;-71
2023/09/06 00:38:57;;;;;;;1999.90;999.90;;;;;;;19.72;91.70;101784.88;10552966;28;20044;-71
2023/09/06 00:43:59;;;;;;;1999.90;999.90;;;;;;;19.70;92.77;101787.63;10535291;28;20131;-71
2023/09/06 00:49:02;;;;;;;1999.90;999.90;;;;;;;19.41;94.46;101785.50;10552684;28;20047;-71
2023/09/06 00:54:04;;;;;;;1999.90;999.90;;;;;;;19.60;92.72;101773.41;10550744;28;20047;-71
2023/09/06 00:59:12;;;;;;;1999.90;999.90;;;;;;;19.47;94.29;101765.59;10544013;28;20054;-71
2023/09/06 01:04:15;;;;;;;1999.90;999.90;;;;;;;19.74;91.21;101778.47;10528640;28;20568;-71
2023/09/06 01:09:17;;;;;;;1999.90;999.90;;;;;;;19.64;91.88;101777.53;10545564;28;20059;-71
2023/09/06 01:14:19;;;;;;;1999.90;999.90;;;;;;;19.47;94.12;101770.91;10544151;28;20058;-71
2023/09/06 01:19:26;;;;;;;1999.90;999.90;;;;;;;19.46;93.06;101775.38;10543364;28;20114;-71
2023/09/06 01:24:29;;;;;;;1999.90;999.90;;;;;;;19.23;94.28;101785.19;10544925;28;20127;-71
2023/09/06 01:29:32;;;;;;;1999.90;999.90;;;;;;;19.15;95.02;101784.94;10542971;28;20484;-71
2023/09/06 01:34:34;;;;;;;1999.90;999.90;;;;;;;18.75;98.38;101794.13;10542353;28;20051;-71
2023/09/06 01:39:37;;;;;;;1999.90;999.90;;;;;;;19.10;96.76;101784.44;10526405;28;20048;-71
2023/09/06 01:44:39;;;;;;;1999.90;999.90;;;;;;;18.83;98.00;101784.75;10543604;28;20633;-71
2023/09/06 01:49:45;;;;;;;1999.90;999.90;;;;;;;19.35;92.83;101777.19;10543898;28;20075;-71
2023/09/06 01:54:47;;;;;;;1999.90;999.90;;;;;;;19.14;92.89;101783.22;10525730;28;20401;-71
2023/09/06 01:59:50;;;;;;;1999.90;999.90;;;;;;;19.32;91.23;101788.91;10541721;28;20563;-71
2023/09/06 02:04:53;;;;;;;1999.90;999.90;;;;;;;19.12;92.70;101775.38;10542637;28;20439;-71
2023/09/06 02:09:56;;;;;;;1999.90;999.90;;;;;;;18.84;98.51;101783.78;10542963;28;20127;-71
2023/09/06 02:14:58;;;;;;;1999.90;999.90;;;;;;;18.31;100.00;101792.19;10542826;28;20048;-71
2023/09/06 02:20:17;;;;;;;1999.90;999.90;;;;;;;18.01;100.00;101799.63;10542656;28;20127;-71
2023/09/06 02:25:25;;;;;;;1999.90;999.90;;;;;;;17.94;100.00;101798.38;10542513;28;20106;-71
2023/09/06 02:30:28;;;;;;;1999.90;999.90;;;;;;;18.14;100.00;101791.63;10524089;28;20063;-71
2023/09/06 02:35:30;;;;;;;1999.90;999.90;;;;;;;17.95;100.00;101804.50;10540921;28;20080;-71
2023/09/06 02:40:33;;;;;;;1999.90;999.90;;;;;;;18.20;100.00;101804.41;10540061;28;20396;-71
2023/09/06 02:45:38;;;;;;;1999.90;999.90;;;;;;;18.04;100.00;101803.84;10541758;28;20044;-71
2023/09/06 02:50:41;;;;;;;1999.90;999.90;;;;;;;17.86;100.00;101819.25;10541591;28;20048;-71
2023/09/06 02:55:43;;;;;;;1999.90;999.90;;;;;;;17.99;100.00;101816.59;10540584;28;20044;-71
2023/09/06 03:00:49;;;;;;;1999.90;999.90;;;;;;;17.88;100.00;101817.34;10540566;28;20058;-71
2023/09/06 03:05:53;;;;;;;1999.90;999.90;;;;;;;17.68;100.00;101818.75;10541108;28;20043;-71
2023/09/06 03:10:55;;;;;;;1999.90;999.90;;;;;;;17.87;100.00;101823.63;10540896;28;20082;-71
2023/09/06 03:15:59;;;;;;;1999.90;999.90;;;;;;;17.73;100.00;101821.91;10538767;28;20451;-71
2023/09/06 03:21:04;;;;;;;1999.90;999.90;;;;;;;17.48;100.00;101816.69;10539985;28;20054;-71
2023/09/06 03:26:09;;;;;;;1999.90;999.90;;;;;;;17.47;100.00;101829.09;10540456;28;20134;-71
2023/09/06 03:31:14;;;;;;;1999.90;999.90;;;;;;;17.39;100.00;101831.41;10539925;28;20138;-71
2023/09/06 03:36:17;;;;;;;1999.90;999.90;;;;;;;17.39;100.00;101829.59;10539504;28;20483;-71
2023/09/06 03:41:19;;;;;;;1999.90;999.90;;;;;;;17.37;100.00;101838.63;10538846;28;20044;-71
2023/09/06 03:46:22;;;;;;;1999.90;999.90;;;;;;;17.25;100.00;101841.16;10539224;28;20044;-71
2023/09/06 03:51:24;;;;;;;1999.90;999.90;;;;;;;17.19;100.00;101843.38;10539842;28;20071;-71
2023/09/06 03:56:28;;;;;;;1999.90;999.90;;;;;;;17.39;100.00;101844.66;10539630;28;20056;-71
2023/09/06 04:01:32;;;;;;;1999.90;999.90;;;;;;;17.08;100.00;101858.19;10538963;28;20048;-71
2023/09/06 04:06:35;;;;;;;1999.90;999.90;;;;;;;17.14;100.00;101851.63;10538935;28;20052;-71
2023/09/06 04:11:37;;;;;;;1999.90;999.90;;;;;;;17.10;100.00;101855.44;10537563;28;20489;-71
2023/09/06 04:16:40;;;;;;;1999.90;999.90;;;;;;;16.88;100.00;101864.84;10539278;28;20132;-71
2023/09/06 04:21:47;;;;;;;1999.90;999.90;;;;;;;16.93;100.00;101871.59;10538643;28;20479;-71
2023/09/06 04:26:51;;;;;;;1999.90;999.90;;;;;;;16.77;100.00;101872.59;10538572;28;20389;-71
2023/09/06 04:31:54;;;;;;;1999.90;999.90;;;;;;;16.71;100.00;101871.22;10542182;28;20082;-71
2023/09/06 04:36:56;;;;;;;1999.90;999.90;;;;;;;16.63;100.00;101872.69;10545047;28;20512;-71
2023/09/06 04:42:00;;;;;;;1999.90;999.90;;;;;;;16.63;100.00;101877.97;10545494;28;20051;-71
2023/09/06 04:47:03;;;;;;;1999.90;999.90;;;;;;;16.75;100.00;101878.97;10545834;28;20140;-71
2023/09/06 04:52:05;;;;;;;1999.90;999.90;;;;;;;16.53;100.00;101875.91;10546215;28;20052;-71
2023/09/06 04:57:08;;;;;;;1999.90;999.90;;;;;;;16.58;100.00;101869.50;10546154;28;20044;-71
2023/09/06 05:02:10;;;;;;;1999.90;999.90;;;;;;;16.49;100.00;101878.84;10544764;28;20109;-71
2023/09/06 05:07:13;;;;;;;1999.90;999.90;;;;;;;16.43;100.00;101877.47;10545663;28;20055;-71
2023/09/06 05:12:15;;;;;;;1999.90;999.90;;;;;;;16.59;100.00;101877.28;10544208;28;20050;-71
2023/09/06 05:17:17;;;;;;;1999.90;999.90;;;;;;;16.56;100.00;101884.59;10543499;28;20538;-71
2023/09/06 05:22:22;;;;;;;1999.90;999.90;;;;;;;16.57;100.00;101894.22;10545119;28;20050;-71
2023/09/06 05:27:27;;;;;;;1999.90;999.90;;;;;;;16.75;100.00;101898.31;10526831;28;20452;-71
2023/09/06 05:32:29;;;;;;;1999.90;999.90;;;;;;;17.05;100.00;101902.53;10543818;28;20509;-71
2023/09/06 05:37:32;;;;;;;1999.90;999.90;;;;;;;17.42;100.00;101908.81;10543848;28;20454;-71
2023/09/06 05:42:35;;;;;;;1999.90;999.90;;;;;;;17.66;100.00;101913.34;10543724;28;20055;-71
2023/09/06 05:47:38;;;;;;;1999.90;999.90;;;;;;;17.85;100.00;101901.47;10544104;28;20048;-70
2023/09/06 05:52:41;;;;;;;1999.90;999.90;;;;;;;18.04;100.00;101906.34;10543840;28;20055;-71
2023/09/06 05:57:43;;;;;;;1999.90;999.90;;;;;;;18.05;100.00;101913.34;10542516;28;20062;-70
2023/09/06 06:02:47;;;;;;;1999.90;999.90;;;;;;;18.50;97.94;101913.63;10543467;28;20048;-71
2023/09/06 06:07:49;;;;;;;1999.90;999.90;;;;;;;18.37;99.00;101909.22;10524658;28;20658;-71
2023/09/06 06:12:52;;;;;;;1999.90;999.90;;;;;;;18.57;97.22;101915.69;10541798;28;20051;-71
2023/09/06 06:17:54;;;;;;;1999.90;999.90;;;;;;;18.69;95.88;101916.63;10542836;28;20044;-71
2023/09/06 06:22:57;;;;;;;1999.90;999.90;;;;;;;18.75;95.59;101918.78;10541980;28;20052;-71
2023/09/06 06:27:59;;;;;;;1999.90;999.90;;;;;;;18.91;94.79;101930.94;10523988;28;20560;-71
2023/09/06 06:33:02;;;;;;;1999.90;999.90;;;;;;;19.09;93.34;101924.25;10541593;28;20132;-71
2023/09/06 06:38:07;;;;;;;1999.90;999.90;;;;;;;19.08;91.49;101919.06;10542096;28;20098;-71
2023/09/06 06:43:11;;;;;;;1999.90;999.90;;;;;;;19.31;90.67;101919.97;10541222;28;20435;-71
2023/09/06 06:48:14;;;;;;;1999.90;999.90;;;;;;;19.39;90.76;101927.34;10541744;28;20056;-71
2023/09/06 06:53:16;;;;;;;1999.90;999.90;;;;;;;19.59;89.89;101931.97;10540622;28;20076;-71
2023/09/06 06:58:18;;;;;;;1999.90;999.90;;;;;;;19.76;90.33;101935.16;10541348;28;20105;-71
2023/09/06 07:03:21;;;;;;;1999.90;999.90;;;;;;;19.90;89.43;101934.06;10541106;28;20119;-71
2023/09/06 07:08:25;;;;;;;1999.90;999.90;;;;;;;20.08;87.67;101934.41;10540952;28;20048;-71
2023/09/06 07:13:28;;;;;;;1999.90;999.90;;;;;;;20.15;86.22;101935.59;10540724;28;20097;-72
2023/09/06 07:18:30;;;;;;;1999.90;999.90;;;;;;;20.47;84.63;101927.66;10540639;28;20051;-71
2023/09/06 07:23:33;;;;;;;1999.90;999.90;;;;;;;20.76;83.05;101929.78;10540525;28;20086;-71
2023/09/06 07:28:41;;;;;;;1999.90;999.90;;;;;;;21.49;79.93;101930.75;10540323;28;20105;-71
2023/09/06 07:33:44;;;;;;;1999.90;999.90;;;;;;;22.01;78.87;101930.69;10538093;28;20048;-71
2023/09/06 07:38:46;;;;;;;1999.90;999.90;;;;;;;22.69;75.58;101940.66;10538882;28;20118;-72
2023/09/06 07:43:48;;;;;;;1999.90;999.90;;;;;;;22.79;75.02;101938.81;10539387;28;20048;-71
2023/09/06 07:48:51;;;;;;;1999.90;999.90;;;;;;;23.28;73.71;101937.97;10546454;22;20139;-73
2023/09/06 07:53:55;;;;;;;1999.90;999.90;;;;;;;23.68;69.93;101937.69;10539792;28;20044;-73
2023/09/06 07:58:57;;;;;;;1999.90;999.90;;;;;;;24.21;71.15;101938.91;10539104;28;20557;-73
2023/09/06 08:04:00;;;;;;;1999.90;999.90;;;;;;;24.43;71.39;101942.97;10540350;28;20119;-73
2023/09/06 08:09:02;;;;;;;1999.90;999.90;;;;;;;24.60;71.70;101941.34;10548071;28;20048;-73
2023/09/06 08:14:05;;;;;;;1999.90;999.90;;;;;;;24.77;70.85;101957.56;10546618;28;20071;-73
2023/09/06 08:19:07;;;;;;;1999.90;999.90;;;;;;;25.22;68.17;101959.25;10547681;28;20058;-73
2023/09/06 08:24:09;;;;;;;1999.90;999.90;;;;;;;25.27;67.87;101951.63;10546774;28;20504;-73
2023/09/06 08:29:12;;;;;;;1999.90;999.90;;;;;;;25.78;66.67;101951.75;10547211;28;20105;-73
2023/09/06 08:34:14;;;;;;;1543.80;776.95;;;;;;;25.84;64.29;101944.88;10547009;28;20070;-73
2023/09/06 08:39:16;;;;;;;1999.90;999.90;;;;;;;25.92;64.59;101944.91;10545681;28;20052;-74
2023/09/06 08:44:21;;;;;;;1999.90;999.90;;;;;;;26.63;63.47;101942.81;10546720;28;20051;-73
2023/09/06 08:49:24;;;;;;;1999.90;999.90;;;;;;;26.62;60.98;101941.94;10544542;28;20056;-74
2023/09/06 08:54:27;;;;;;;1999.90;999.90;;;;;;;26.81;59.79;101942.66;10545016;28;20052;-73
2023/09/06 08:59:32;;;;;;;1999.90;999.90;;;;;;;26.79;59.98;101940.13;10545432;28;20052;-73
2023/09/06 09:04:34;;;;;;;1999.90;999.90;;;;;;;27.55;58.74;101947.97;10544672;28;20075;-73
2023/09/06 09:09:55;;;;;;;1999.90;999.90;;;;;;;28.15;57.21;101935.81;10527107;28;20389;-73
2023/09/06 09:14:58;;;;;;;1999.90;999.90;;;;;;;27.60;56.32;101940.22;10544270;28;20040;-73
2023/09/06 09:20:19;;;;;;;1999.90;999.90;;;;;;;29.24;57.26;101933.00;10543901;28;20071;-73
2023/09/06 09:25:23;;;;;;;1999.90;999.90;;;;;;;28.68;53.77;101939.53;10543873;28;20040;-73
2023/09/06 09:30:30;;;;;;;1999.90;999.90;;;;;;;29.19;52.42;101932.72;10544848;28;20056;-73
2023/09/06 09:35:34;;;;;;;1999.90;999.90;;;;;;;28.74;51.66;101946.03;10543432;28;20044;-73
2023/09/06 09:40:37;;;;;;;1999.90;999.90;;;;;;;30.14;52.11;101940.03;10543840;28;20407;-73
2023/09/06 09:45:54;;;;;;;1999.90;999.90;;;;;;;29.88;50.43;101945.94;10542457;28;20131;-73
2023/09/06 09:50:58;;;;;;;1999.90;999.90;;;;;;;30.12;47.30;101941.22;10542877;28;20055;-73
2023/09/06 09:56:08;;;;;;;1999.90;999.90;;;;;;;31.45;46.07;101926.19;10542629;28;20041;-73
2023/09/06 10:01:10;;;;;;;1999.90;999.90;;;;;;;31.94;46.13;101926.22;10541898;28;20131;-73
2023/09/06 10:06:13;;;;;;;1999.90;999.90;;;;;;;31.90;46.20;101922.25;10542242;28;20040;-73
2023/09/06 10:11:16;;;;;;;1999.90;999.90;;;;;;;32.09;45.12;101915.25;10543172;28;20113;-73
2023/09/06 10:16:25;;;;;;;1999.90;999.90;;;;;;;32.80;46.19;101916.59;10541739;28;20054;-73
2023/09/06 10:21:30;;;;;;;1999.90;999.90;;;;;;;32.15;45.57;101912.56;10541095;28;20481;-73
2023/09/06 10:26:35;;;;;;;1999.90;999.90;;;;;;;32.63;44.10;101908.88;10541421;28;20051;-74
2023/09/06 10:31:49;;;;;;;1999.90;999.90;;;;;;;33.11;43.80;101902.41;10541263;28;20071;-73
2023/09/06 10:36:56;;;;;;;1999.90;999.90;;;;;;;32.91;43.38;101903.25;10542119;28;20071;-73
2023/09/06 10:42:08;;;;;;;1999.90;999.90;;;;;;;33.50;42.21;101898.75;10542069;28;20131;-73
2023/09/06 10:47:29;;;;;;;1999.90;999.90;;;;;;;33.59;42.42;101907.50;10541017;28;20516;-73
2023/09/06 10:52:48;;;;;;;1999.90;999.90;;;;;;;33.50;41.18;101908.78;10539791;28;20101;-73
2023/09/06 10:57:55;;;;;;;1999.90;999.90;;;;;;;34.06;40.89;101907.28;10541504;28;20047;-73
2023/09/06 11:03:28;;;;;;;1999.90;999.90;;;;;;;34.83;40.82;101895.47;10540638;28;20079;-73
2023/09/06 11:08:33;;;;;;;1999.90;999.90;;;;;;;33.79;40.30;101890.31;10539617;28;20048;-73
2023/09/06 11:13:37;;;;;;;1999.90;999.90;;;;;;;34.97;40.38;101888.84;10539647;28;20048;-73
2023/09/06 11:18:51;;;;;;;1999.90;999.90;;;;;;;33.56;40.15;101894.34;10539510;28;20105;-73
2023/09/06 11:23:54;;;;;;;1999.90;999.90;;;;;;;35.72;41.33;101891.34;10540575;28;20122;-73
2023/09/06 11:29:03;;;;;;;1999.90;999.90;;;;;;;35.26;38.71;101889.19;10539792;28;20055;-73
2023/09/06 11:34:09;;;;;;;1999.90;999.90;;;;;;;35.17;39.69;101888.59;10540267;28;20071;-72
2023/09/06 11:39:16;;;;;;;1999.90;999.90;;;;;;;36.07;40.08;101878.91;10539701;28;20056;-72
2023/09/06 11:44:19;;;;;;;1999.90;999.90;;;;;;;36.76;38.59;101883.94;10540202;28;20048;-72
2023/09/06 11:49:25;;;;;;;1999.90;999.90;;;;;;;36.26;39.75;101880.56;10537966;28;20056;-72
2023/09/06 11:54:31;;;;;;;1999.90;999.90;;;;;;;35.43;39.00;101875.81;10538681;28;20048;-72
2023/09/06 11:59:34;;;;;;;1999.90;999.90;;;;;;;35.90;39.04;101871.41;10539175;28;20076;-72
2023/09/06 12:04:36;;;;;;;1999.90;999.90;;;;;;;34.35;37.10;101864.28;10538985;28;20051;-72
2023/09/06 12:09:38;;;;;;;1999.90;999.90;;;;;;;34.67;37.28;101865.03;10538897;28;20386;-72
2023/09/06 12:14:43;;;;;;;1999.90;999.90;;;;;;;34.29;38.27;101859.72;10537570;28;20400;-71
2023/09/06 12:19:46;;;;;;;1999.90;999.90;;;;;;;34.80;37.69;101847.78;10539911;28;20450;-72
2023/09/06 12:24:51;;;;;;;1999.90;999.90;;;;;;;34.29;37.89;101851.56;10538611;28;20498;-72
2023/09/06 12:29:53;;;;;;;1999.90;999.90;;;;;;;33.87;37.02;101860.19;10539201;28;20052;-71
2023/09/06 12:34:56;;;;;;;1999.90;999.90;;;;;;;33.95;38.83;101851.78;10537727;28;20059;-71
2023/09/06 12:39:58;;;;;;;1999.90;999.90;;;;;;;34.82;36.99;101847.56;10538314;28;20508;-72
2023/09/06 12:45:01;;;;;;;1999.90;999.90;;;;;;;34.44;38.75;101843.91;10538630;28;20059;-72
2023/09/06 12:50:05;;;;;;;1999.90;999.90;;;;;;;34.28;37.67;101839.88;10538176;28;20131;-72
2023/09/06 12:55:08;;;;;;;1999.90;999.90;;;;;;;34.00;36.33;101830.22;10545523;28;20127;-72
2023/09/06 13:00:12;;;;;;;1999.90;999.90;;;;;;;34.45;37.47;101829.28;10546115;28;20055;-71
2023/09/06 13:05:19;;;;;;;1999.90;999.90;;;;;;;35.39;36.67;101814.69;10544728;28;20047;-71
2023/09/06 13:10:23;;;;;;;1999.90;999.90;;;;;;;35.45;37.75;101820.03;10544736;28;20055;-72
2023/09/06 13:15:25;;;;;;;1999.90;999.90;;;;;;;34.11;39.18;101817.78;10543648;28;20503;-71
2023/09/06 13:20:28;;;;;;;1999.90;999.90;;;;;;;34.14;39.57;101820.06;10545365;28;20055;-71
2023/09/06 13:25:32;;;;;;;1999.90;999.90;;;;;;;34.31;40.05;101823.09;10544013;28;20048;-71
2023/09/06 13:30:34;;;;;;;1999.90;999.90;;;;;;;33.88;41.24;101821.94;10544916;28;20048;-72
2023/09/06 13:35:37;;;;;;;1999.90;999.90;;;;;;;33.07;41.33;101815.19;10543509;28;20052;-72
2023/09/06 13:40:39;;;;;;;1999.90;999.90;;;;;;;35.70;39.49;101824.53;10543877;28;20052;-72
2023/09/06 13:45:41;;;;;;;1999.90;999.90;;;;;;;33.62;41.47;101812.03;10542875;28;20052;-72
2023/09/06 13:50:44;;;;;;;1999.90;999.90;;;;;;;32.92;40.41;101801.88;10544204;28;20052;-72
2023/09/06 13:55:46;;;;;;;1999.90;999.90;;;;;;;33.07;40.96;101801.63;10543867;28;20051;-72
2023/09/06 14:01:09;;;;;;;1999.90;999.90;;;;;;;34.26;40.25;101803.91;10543026;28;20402;-72
2023/09/06 14:06:11;;;;;;;1999.90;999.90;;;;;;;34.02;42.37;101802.84;10543194;28;20043;-72
2023/09/06 14:11:15;;;;;;;1999.90;999.90;;;;;;;33.13;41.43;101802.63;10542692;28;20048;-72
2023/09/06 14:16:17;;;;;;;1999.90;999.90;;;;;;;33.46;42.28;101797.09;10542533;28;20055;-72
2023/09/06 14:21:20;;;;;;;1999.90;999.90;;;;;;;33.27;39.89;101792.59;10541704;28;20059;-72
2023/09/06 14:26:23;;;;;;;1999.90;999.90;;;;;;;33.05;40.69;101794.72;10542675;28;20074;-72
2023/09/06 14:31:25;;;;;;;1999.90;999.90;;;;;;;34.75;39.10;101782.34;10541809;28;20404;-72
2023/09/06 14:36:28;;;;;;;1999.90;999.90;;;;;;;33.59;40.42;101779.91;10541086;28;20048;-73
2023/09/06 14:41:30;;;;;;;1999.90;999.90;;;;;;;35.54;38.91;101782.44;10541348;28;20485;-72
2023/09/06 14:46:34;;;;;;;1999.90;999.90;;;;;;;33.90;40.66;101772.84;10541071;28;20052;-72
2023/09/06 14:51:37;;;;;;;1999.90;999.90;;;;;;;34.37;38.22;101775.19;10540554;28;20052;-72
2023/09/06 14:56:39;;;;;;;1999.90;999.90;;;;;;;34.90;39.52;101771.09;10541455;28;20044;-72
2023/09/06 15:01:41;;;;;;;1999.90;999.90;;;;;;;34.18;42.03;101763.41;10541303;28;20048;-72
2023/09/06 15:06:45;;;;;;;1999.90;999.90;;;;;;;35.28;39.72;101767.31;10540520;28;20050;-72
2023/09/06 15:12:00;;;;;;;1999.90;999.90;;;;;;;36.21;38.18;101765.06;10539333;28;20507;-72
2023/09/06 15:17:06;;;;;;;1999.90;999.90;;;;;;;33.50;42.95;101783.91;10540108;28;20044;-72
2023/09/06 15:22:09;;;;;;;1999.90;999.90;;;;;;;34.97;42.45;101777.31;10539555;28;20083;-72
2023/09/06 15:27:11;;;;;;;1999.90;999.90;;;;;;;33.93;44.72;101785.13;10540523;28;20044;-72
2023/09/06 15:32:16;;;;;;;1999.90;999.90;;;;;;;34.09;42.79;101786.47;10540340;28;20052;-72
2023/09/06 15:37:19;;;;;;;1999.90;999.90;;;;;;;34.29;44.41;101787.16;10540155;28;20132;-72
2023/09/06 15:42:21;;;;;;;1999.90;999.90;;;;;;;33.33;45.34;101789.84;10539491;28;20545;-72
2023/09/06 15:47:24;;;;;;;1999.90;999.90;;;;;;;32.98;46.02;101783.91;10539486;28;20060;-72
2023/09/06 15:52:27;;;;;;;1999.90;999.90;;;;;;;32.65;48.15;101773.13;10539410;28;20076;-72
2023/09/06 15:57:29;;;;;;;1999.90;999.90;;;;;;;32.28;50.78;101778.16;10539243;28;20135;-72
2023/09/06 16:02:31;;;;;;;1999.90;999.90;;;;;;;31.59;51.45;101774.72;10539055;28;20408;-72
2023/09/06 16:07:35;;;;;;;1999.90;999.90;;;;;;;31.53;53.42;101770.97;10538441;28;20044;-72
2023/09/06 16:12:37;;;;;;;1999.90;999.90;;;;;;;30.09;57.35;101766.09;10521682;28;20056;-72
2023/09/06 16:17:40;;;;;;;1999.90;999.90;;;;;;;29.75;58.71;101767.63;10539402;28;20079;-72
2023/09/06 16:22:43;;;;;;;1999.90;999.90;;;;;;;29.14;61.11;101768.75;10537487;28;20511;-72
2023/09/06 16:27:45;;;;;;;1999.90;999.90;;;;;;;28.83;63.57;101777.03;10543794;28;20447;-72
2023/09/06 16:32:48;;;;;;;1999.90;999.90;;;;;;;28.24;65.06;101766.97;10546594;28;20428;-72
2023/09/06 16:37:51;;;;;;;1999.90;999.90;;;;;;;27.27;69.16;101778.97;10545160;28;20457;-72
2023/09/06 16:42:54;;;;;;;1999.90;999.90;;;;;;;26.34;74.42;101783.00;10545695;28;20050;-72
2023/09/06 16:47:57;;;;;;;1999.90;999.90;;;;;;;26.02;76.44;101781.16;10546074;28;20052;-72
2023/09/06 16:52:59;;;;;;;1999.90;999.90;;;;;;;26.17;75.36;101784.84;10546489;28;20055;-72
2023/09/06 16:58:06;;;;;;;1999.90;999.90;;;;;;;25.42;80.58;101783.03;10545662;28;20052;-72
2023/09/06 17:03:09;;;;;;;1999.90;999.90;;;;;;;25.43;79.57;101779.31;10546053;28;20055;-72
2023/09/06 17:08:11;;;;;;;1999.90;999.90;;;;;;;26.06;76.75;101772.63;10545920;28;20089;-72
2023/09/06 17:13:14;;;;;;;1999.90;999.90;;;;;;;24.71;83.83;101779.59;10545011;28;20181;-72
2023/09/06 17:18:16;;;;;;;1999.90;999.90;;;;;;;24.48;84.27;101777.41;10545436;28;20052;-72
2023/09/06 17:23:18;;;;;;;1999.90;999.90;;;;;;;24.39;84.79;101777.50;10545238;28;20055;-72
2023/09/06 17:28:21;;;;;;;1999.90;999.90;;;;;;;24.11;87.66;101783.78;10545127;28;20055;-71
2023/09/06 17:33:25;;;;;;;1999.90;999.90;;;;;;;24.05;87.44;101781.72;10543678;28;20048;-72
2023/09/06 17:38:27;;;;;;;1999.90;999.90;;;;;;;24.04;85.99;101784.53;10543263;28;20082;-72
2023/09/06 17:43:30;;;;;;;1999.90;999.90;;;;;;;23.98;85.64;101782.50;10544444;28;20054;-72
2023/09/06 17:48:32;;;;;;;1999.90;999.90;;;;;;;23.72;87.80;101783.19;10543495;28;20580;-72
2023/09/06 17:53:36;;;;;;;1999.90;999.90;;;;;;;23.70;85.93;101787.84;10544038;28;20048;-72
2023/09/06 17:58:46;;;;;;;1999.90;999.90;;;;;;;23.50;87.24;101790.66;10543690;28;20040;-72
2023/09/06 18:03:56;;;;;;;1999.90;999.90;;;;;;;23.39;87.33;101788.16;10542477;28;20056;-72
2023/09/06 18:09:07;;;;;;;1999.90;999.90;;;;;;;23.29;86.09;101796.22;10541723;28;20056;-72
2023/09/06 18:14:10;;;;;;;1999.90;999.90;;;;;;;23.02;86.92;101805.03;10542573;28;20550;-72
2023/09/06 18:19:12;;;;;;;1999.90;999.90;;;;;;;22.96;87.00;101803.78;10542349;28;20485;-72
2023/09/06 18:24:15;;;;;;;1999.90;999.90;;;;;;;22.79;87.01;101801.84;10542160;28;20048;-72
2023/09/06 18:29:17;;;;;;;1999.90;999.90;;;;;;;22.62;87.20;101812.25;10542580;28;20058;-72
2023/09/06 18:34:20;;;;;;;1999.90;999.90;;;;;;;22.30;90.14;101812.56;10540506;28;20475;-72
2023/09/06 18:39:22;;;;;;;1999.90;999.90;;;;;;;22.20;90.83;101819.69;10540425;28;20058;-72
2023/09/06 18:44:27;;;;;;;1999.90;999.90;;;;;;;22.18;89.61;101819.00;10542008;28;20044;-72
2023/09/06 18:49:35;;;;;;;1999.90;999.90;;;;;;;22.26;89.60;101819.16;10540056;28;20077;-72
2023/09/06 18:54:37;;;;;;;1999.90;999.90;;;;;;;21.98;91.67;101826.13;10541639;28;20044;-72
2023/09/06 18:59:39;;;;;;;1999.90;999.90;;;;;;;22.00;90.09;101824.16;10541747;28;20044;-72
2023/09/06 19:04:45;;;;;;;1999.90;999.90;;;;;;;21.75;93.11;101834.34;10540703;28;20040;-72
2023/09/06 19:09:47;;;;;;;1999.90;999.90;;;;;;;21.82;93.25;101831.97;10541735;28;20054;-72
2023/09/06 19:14:50;;;;;;;1999.90;999.90;;;;;;;21.63;93.62;101835.44;10540861;28;20074;-72
2023/09/06 19:19:53;;;;;;;1999.90;999.90;;;;;;;21.48;95.55;101850.94;10540822;28;20051;-72
2023/09/06 19:24:55;;;;;;;1999.90;999.90;;;;;;;21.46;96.14;101852.88;10538822;28;20482;-72
2023/09/06 19:29:58;;;;;;;1999.90;999.90;;;;;;;21.51;95.98;101848.00;10540549;28;20048;-72
2023/09/06 19:35:00;;;;;;;1999.90;999.90;;;;;;;21.39;97.32;101851.72;10540242;28;20054;-72
2023/09/06 19:40:04;;;;;;;1999.90;999.90;;;;;;;21.40;96.98;101851.59;10540203;28;20059;-72
2023/09/06 19:45:09;;;;;;;1999.90;999.90;;;;;;;21.09;99.84;101853.38;10521340;28;20485;-72
2023/09/06 19:50:11;;;;;;;1999.90;999.90;;;;;;;21.17;99.16;101852.75;10540025;28;20126;-72
2023/09/06 19:55:16;;;;;;;1999.90;999.90;;;;;;;21.16;99.70;101862.53;10538609;28;20055;-72
2023/09/06 20:00:19;;;;;;;1999.90;999.90;;;;;;;21.06;100.00;101861.63;10541722;22;20564;-70
2023/09/06 20:05:21;;;;;;;1999.90;999.90;;;;;;;20.93;100.00;101862.69;10489011;28;20048;-70
2023/09/06 20:10:24;;;;;;;1999.90;999.90;;;;;;;20.91;100.00;101864.63;10488742;28;20091;-70
2023/09/06 20:15:26;;;;;;;1999.90;999.90;;;;;;;20.84;100.00;101868.78;10505458;28;20049;-70
2023/09/06 20:20:29;;;;;;;1999.90;999.90;;;;;;;20.85;100.00;101872.28;10488206;28;20089;-70
2023/09/06 20:25:31;;;;;;;1999.90;999.90;;;;;;;20.75;100.00;101872.22;10488066;28;20077;-70
2023/09/06 20:30:39;;;;;;;1999.90;999.90;;;;;;;20.76;100.00;101868.56;10487868;28;20071;-70
2023/09/06 20:35:43;;;;;;;1999.90;999.90;;;;;;;20.58;100.00;101871.78;10487436;28;20408;-70
2023/09/06 20:40:55;;;;;;;1999.90;999.90;;;;;;;20.61;100.00;101870.69;10486827;28;20049;-70
2023/09/06 20:45:58;;;;;;;1999.90;999.90;;;;;;;20.69;100.00;101876.22;10487228;28;20045;-69
2023/09/06 20:51:03;;;;;;;1999.90;999.90;;;;;;;20.54;100.00;101865.03;10504766;28;20056;-70
2023/09/06 20:56:07;;;;;;;1999.90;999.90;;;;;;;20.37;100.00;101863.75;10487138;28;20041;-69
2023/09/06 21:01:11;;;;;;;1999.90;999.90;;;;;;;20.33;100.00;101872.13;10485943;28;20389;-70
2023/09/06 21:06:14;;;;;;;1999.90;999.90;;;;;;;20.37;100.00;101876.19;10486500;28;20048;-69
2023/09/06 21:11:17;;;;;;;1999.90;999.90;;;;;;;20.45;100.00;101870.25;10485667;28;20052;-70
2023/09/06 21:16:19;;;;;;;1999.90;999.90;;;;;;;20.31;100.00;101874.91;10503323;28;20128;-69
2023/09/06 21:21:22;;;;;;;1999.90;999.90;;;;;;;20.27;100.00;101878.75;10485901;28;20044;-69
2023/09/06 21:26:24;;;;;;;1999.90;999.90;;;;;;;20.14;100.00;101886.03;10485048;28;20123;-70
2023/09/06 21:31:26;;;;;;;1999.90;999.90;;;;;;;20.12;100.00;101882.66;10503207;28;20053;-70
2023/09/06 21:36:29;;;;;;;1999.90;999.90;;;;;;;20.17;100.00;101884.00;10503041;28;20044;-69
2023/09/06 21:41:33;;;;;;;1999.90;999.90;;;;;;;20.20;100.00;101890.88;10485118;28;20056;-69
2023/09/06 21:46:35;;;;;;;1999.90;999.90;;;;;;;20.25;100.00;101891.34;10484493;28;20075;-70
2023/09/06 21:51:38;;;;;;;1999.90;999.90;;;;;;;20.08;100.00;101900.69;10501894;28;20525;-70
2023/09/06 21:56:40;;;;;;;1999.90;999.90;;;;;;;19.93;100.00;101899.25;10484689;28;20053;-69